Time;durP1;ratioP1;P1;durP2;ratioP2;P2;SDS_P1;SDS_P2;PMS_P1;PMS_P2;Temp;Humidity;BMP_temperature;BMP_pressure;BME280_temperature;BME280_humidity;BME280_pressure;Samples;Min_cycle;Max_cycle;Signal;HPM_P1;HPM_P2
2023/10/13 00:00:40;;;;;;;101.13;50.63;;;14.30;99.90;;;;;;5067902;28;20056;-86
2023/10/13 00:03:08;;;;;;;96.18;50.03;;;14.40;99.90;;;;;;5021754;28;20166;-86
2023/10/13 00:05:34;;;;;;;91.03;47.00;;;14.40;99.90;;;;;;5067815;28;20041;-86
2023/10/13 00:08:02;;;;;;;92.25;47.78;;;14.50;99.90;;;;;;5051233;28;20075;-86
2023/10/13 00:10:29;;;;;;;89.63;43.92;;;14.60;99.90;;;;;;5067172;28;20056;-86
2023/10/13 00:13:05;;;;;;;84.68;45.00;;;13.90;99.90;;;;;;5067963;28;20049;-86
2023/10/13 00:15:38;;;;;;;78.82;43.38;;;14.60;99.90;;;;;;5067802;28;20041;-86
2023/10/13 00:18:12;;;;;;;88.80;44.88;;;14.70;99.90;;;;;;5052606;28;20057;-86
2023/10/13 00:20:50;;;;;;;88.45;46.08;;;14.70;99.90;;;;;;5067783;28;20053;-86
2023/10/13 00:23:20;;;;;;;81.78;41.60;;;14.30;99.90;;;;;;5034232;28;20060;-86
2023/10/13 00:26:03;;;;;;;95.18;45.90;;;14.70;99.90;;;;;;5034323;28;20080;-86
2023/10/13 00:28:46;;;;;;;90.82;46.10;;;14.80;99.90;;;;;;5050507;28;20076;-86
2023/10/13 00:31:13;;;;;;;84.47;43.95;;;14.80;99.90;;;;;;5050904;28;20441;-86
2023/10/13 00:33:46;;;;;;;86.50;46.35;;;14.80;99.90;;;;;;5067248;28;20060;-86
2023/10/13 00:36:19;;;;;;;89.63;46.45;;;14.90;99.90;;;;;;5052410;28;20057;-86
2023/10/13 00:38:50;;;;;;;84.05;43.92;;;14.80;99.90;;;;;;5037101;28;20379;-86
2023/10/13 00:41:26;;;;;;;88.07;46.92;;;15.00;99.90;;;;;;5071277;28;20139;-90
2023/10/13 00:44:09;;;;;;;73.47;42.03;;;15.00;99.90;;;;;;5071586;28;20040;-86
2023/10/13 00:46:38;;;;;;;71.85;39.38;;;15.00;99.90;;;;;;5056526;28;20478;-86
2023/10/13 00:49:05;;;;;;;70.53;39.03;;;15.10;99.90;;;;;;5088245;28;20045;-86
2023/10/13 00:51:32;;;;;;;79.45;40.85;;;15.10;99.90;;;;;;5053602;28;20045;-87
2023/10/13 00:54:02;;;;;;;71.38;40.42;;;14.90;99.90;;;;;;5054315;28;20064;-86
2023/10/13 00:56:30;;;;;;;62.72;38.05;;;15.10;99.90;;;;;;5071050;28;20095;-86
2023/10/13 00:58:59;;;;;;;71.50;40.38;;;15.10;99.90;;;;;;5054394;28;20049;-86
2023/10/13 01:01:32;;;;;;;69.78;37.60;;;15.20;99.90;;;;;;5087455;28;20494;-86
2023/10/13 01:04:08;;;;;;;69.72;38.88;;;15.20;99.90;;;;;;5071569;28;20056;-86
2023/10/13 01:06:37;;;;;;;64.90;37.15;;;15.30;99.90;;;;;;5069944;28;20045;-86
2023/10/13 01:09:17;;;;;;;61.55;35.78;;;15.30;99.90;;;;;;5054614;28;20090;-85
2023/10/13 01:11:52;;;;;;;66.28;36.53;;;15.30;99.90;;;;;;5070573;28;20045;-86
2023/10/13 01:14:20;;;;;;;61.95;36.35;;;15.40;99.90;;;;;;5071082;28;20045;-85
2023/10/13 01:16:47;;;;;;;72.03;36.75;;;15.40;99.90;;;;;;5053526;28;20041;-86
2023/10/13 01:19:16;;;;;;;69.15;34.20;;;15.40;99.90;;;;;;5070682;28;20486;-85
2023/10/13 01:21:44;;;;;;;62.22;34.38;;;15.40;99.90;;;;;;5069787;28;20468;-86
2023/10/13 01:24:15;;;;;;;64.68;35.13;;;15.30;99.90;;;;;;5070848;28;20084;-86
2023/10/13 01:26:42;;;;;;;59.85;34.70;;;15.40;99.90;;;;;;5053590;28;20045;-86
2023/10/13 01:29:14;;;;;;;59.60;33.38;;;15.40;99.90;;;;;;5087605;28;20083;-86
2023/10/13 01:31:46;;;;;;;53.47;32.05;;;15.40;99.90;;;;;;5037565;28;20048;-85
2023/10/13 01:34:19;;;;;;;59.88;35.33;;;15.40;99.90;;;;;;5054084;28;20045;-87
2023/10/13 01:36:45;;;;;;;57.03;33.05;;;15.50;99.90;;;;;;5050234;28;20126;-86
2023/10/13 01:39:16;;;;;;;66.03;34.05;;;14.70;99.90;;;;;;5033971;28;20089;-86
2023/10/13 01:41:44;;;;;;;57.20;32.50;;;15.40;99.90;;;;;;5001457;28;20083;-85
2023/10/13 01:44:15;;;;;;;59.65;34.83;;;15.40;99.90;;;;;;5036294;28;20051;-86
2023/10/13 01:46:47;;;;;;;65.50;36.70;;;15.40;99.90;;;;;;5069997;28;20103;-86
2023/10/13 01:49:18;;;;;;;57.70;34.53;;;15.40;99.90;;;;;;5086851;28;20055;-85
2023/10/13 01:51:47;;;;;;;63.20;36.38;;;15.50;99.90;;;;;;5053070;28;20055;-85
2023/10/13 01:54:15;;;;;;;57.53;36.03;;;15.40;99.90;;;;;;5069382;28;20087;-85
2023/10/13 01:56:48;;;;;;;64.57;36.42;;;15.50;99.90;;;;;;5069549;28;20136;-86
2023/10/13 01:59:15;;;;;;;61.42;36.47;;;15.50;99.90;;;;;;5053525;28;20482;-86
2023/10/13 02:01:44;;;;;;;63.13;36.03;;;15.50;99.90;;;;;;5053083;28;20052;-86
2023/10/13 02:04:10;;;;;;;64.75;36.53;;;15.50;99.90;;;;;;5053409;28;20041;-85
2023/10/13 02:06:37;;;;;;;63.05;36.55;;;14.90;99.90;;;;;;5068893;28;20052;-86
2023/10/13 02:09:17;;;;;;;67.22;37.63;;;15.50;99.90;;;;;;5053358;28;20086;-85
2023/10/13 02:11:45;;;;;;;67.50;38.13;;;15.30;99.90;;;;;;5069387;28;20114;-86
2023/10/13 02:14:16;;;;;;;76.82;40.17;;;15.50;99.90;;;;;;5069894;28;20095;-85
2023/10/13 02:16:41;;;;;;;70.93;39.20;;;14.90;99.90;;;;;;5052785;28;20052;-86
2023/10/13 02:19:08;;;;;;;70.07;40.20;;;15.50;99.90;;;;;;5052548;28;20037;-86
2023/10/13 02:21:39;;;;;;;68.00;38.58;;;15.50;99.90;;;;;;5069250;28;20052;-87
2023/10/13 02:24:17;;;;;;;61.30;37.03;;;15.50;99.90;;;;;;5069635;28;20048;-85
2023/10/13 02:26:44;;;;;;;65.00;37.90;;;15.50;99.90;;;;;;5052021;28;20380;-86
2023/10/13 02:29:12;;;;;;;;;;;15.50;99.90;;;;;;5069748;28;20045;-85
2023/10/13 02:31:43;;;;;;;59.33;36.17;;;15.60;99.90;;;;;;5069040;28;19929;-86
2023/10/13 02:34:09;;;;;;;59.88;35.85;;;15.60;99.90;;;;;;5085995;28;20048;-85
2023/10/13 02:36:48;;;;;;;55.65;36.30;;;15.50;99.90;;;;;;5035775;28;20041;-86
2023/10/13 02:39:25;;;;;;;55.97;36.00;;;15.50;99.90;;;;;;5068900;28;20062;-86
2023/10/13 02:41:51;;;;;;;;;;;15.60;99.90;;;;;;5069263;28;20052;-86
2023/10/13 02:44:27;;;;;;;57.58;34.25;;;15.80;99.90;;;;;;5052483;28;19928;-86
2023/10/13 02:46:56;;;;;;;54.17;35.85;;;15.60;99.90;;;;;;5068780;28;20045;-86
2023/10/13 02:49:26;;;;;;;61.78;37.63;;;15.60;99.90;;;;;;5035283;28;20055;-86
2023/10/13 02:51:55;;;;;;;58.38;37.15;;;15.60;99.90;;;;;;5068595;28;20060;-86
2023/10/13 02:54:21;;;;;;;57.25;35.00;;;15.60;99.90;;;;;;5069056;28;20055;-86
2023/10/13 02:57:03;;;;;;;58.83;35.90;;;15.60;99.90;;;;;;5051186;28;20044;-86
2023/10/13 02:59:39;;;;;;;58.35;35.60;;;15.60;99.90;;;;;;5051710;28;20049;-86
2023/10/13 03:02:27;;;;;;;58.27;36.97;;;15.60;99.90;;;;;;5051688;28;20053;-86
2023/10/13 03:05:09;;;;;;;;;;;15.60;99.90;;;;;;5035741;28;20084;-86
2023/10/13 03:07:37;;;;;;;52.08;33.53;;;15.60;99.90;;;;;;5068982;28;20019;-86
2023/10/13 03:10:09;;;;;;;53.70;33.10;;;15.60;99.90;;;;;;5068563;28;20041;-86
2023/10/13 03:12:36;;;;;;;51.33;31.75;;;15.50;99.90;;;;;;5068636;28;20131;-86
2023/10/13 03:15:20;;;;;;;54.90;33.72;;;15.60;99.90;;;;;;5035095;28;20517;-86
2023/10/13 03:17:46;;;;;;;51.63;31.33;;;15.60;99.90;;;;;;5053736;28;20060;-86
2023/10/13 03:20:22;;;;;;;58.28;32.65;;;15.60;99.90;;;;;;5068391;28;20052;-86
2023/10/13 03:22:52;;;;;;;52.83;32.70;;;15.60;99.90;;;;;;5067624;28;20045;-86
2023/10/13 03:25:28;;;;;;;61.58;34.08;;;15.50;99.90;;;;;;5035967;28;20078;-85
2023/10/13 03:30:30;;;;;;;66.85;35.72;;;15.60;99.90;;;;;;5084835;28;20060;-86
2023/10/13 03:32:56;;;;;;;60.72;32.85;;;15.60;99.90;;;;;;5034702;28;20041;-86
2023/10/13 03:35:25;;;;;;;61.28;34.63;;;15.50;99.90;;;;;;5068598;28;20103;-86
2023/10/13 03:37:56;;;;;;;56.90;33.30;;;15.60;99.90;;;;;;5051742;28;20052;-87
2023/10/13 03:43:06;;;;;;;55.78;31.25;;;15.60;99.90;;;;;;5051280;28;20210;-86
2023/10/13 03:45:47;;;;;;;48.38;29.55;;;15.60;99.90;;;;;;5051200;28;20052;-86
2023/10/13 03:51:15;;;;;;;41.20;25.80;;;15.60;99.90;;;;;;5084959;28;20458;-86
2023/10/13 03:53:54;;;;;;;51.70;28.42;;;15.60;99.90;;;;;;5054550;28;20050;-86
2023/10/13 03:56:38;;;;;;;45.03;27.25;;;15.60;99.90;;;;;;5051573;28;20083;-86
2023/10/13 04:17:30;;;;;;;50.10;27.80;;;15.60;99.90;;;;;;5055541;28;20075;-86
2023/10/13 04:36:13;;;;;;;55.85;30.85;;;15.60;99.90;;;;;;5026455;28;20049;-86
2023/10/13 04:39:09;;;;;;;;;;;15.60;99.90;;;;;;5072202;28;20444;-86
2023/10/13 04:41:42;;;;;;;63.22;29.55;;;15.60;99.90;;;;;;5071598;28;19976;-86
2023/10/13 04:49:35;;;;;;;55.28;33.00;;;15.60;99.90;;;;;;5055117;28;20106;-86
2023/10/13 04:54:45;;;;;;;46.83;28.42;;;15.60;99.90;;;;;;5054722;28;20049;-85
2023/10/13 04:57:32;;;;;;;54.15;29.38;;;15.50;99.90;;;;;;5069915;28;20107;-86
2023/10/13 05:51:33;;;;;;;28.05;18.15;;;15.30;99.90;;;;;;5085465;28;20045;-85
2023/10/13 06:30:00;;;;;;;12.88;9.52;;;15.40;99.90;;;;;;5072154;28;20052;-83
2023/10/13 06:32:26;;;;;;;11.82;9.63;;;15.40;99.90;;;;;;5052627;28;20045;-85
2023/10/13 06:34:57;;;;;;;10.98;9.18;;;15.40;99.90;;;;;;5051768;28;20110;-85
2023/10/13 06:37:32;;;;;;;11.27;8.68;;;15.40;99.90;;;;;;5052095;28;20053;-85
2023/10/13 06:40:05;;;;;;;10.95;8.27;;;15.40;99.90;;;;;;5036551;28;20522;-82
2023/10/13 06:42:34;;;;;;;10.85;8.32;;;15.50;99.90;;;;;;5050457;28;20106;-83
2023/10/13 06:45:03;;;;;;;10.85;8.23;;;15.50;99.90;;;;;;5068732;28;20048;-82
2023/10/13 06:47:29;;;;;;;9.98;8.32;;;15.50;99.90;;;;;;5052037;28;20086;-82
2023/10/13 06:49:56;;;;;;;12.02;7.63;;;15.50;99.90;;;;;;5052814;28;20056;-82
2023/10/13 06:52:22;;;;;;;10.32;8.15;;;15.60;99.90;;;;;;5035358;28;20037;-83
2023/10/13 06:54:53;;;;;;;9.57;8.25;;;15.60;99.90;;;;;;5035920;28;20049;-83
2023/10/13 06:57:22;;;;;;;10.90;8.73;;;15.60;99.90;;;;;;5068577;28;20110;-83
2023/10/13 06:59:48;;;;;;;12.52;7.80;;;15.60;99.90;;;;;;5051576;28;20041;-82
2023/10/13 07:02:23;;;;;;;;;;;15.70;99.90;;;;;;5052367;28;20087;-83
2023/10/13 07:04:56;;;;;;;7.72;6.22;;;15.70;99.90;;;;;;5069231;28;19924;-83
2023/10/13 07:07:23;;;;;;;8.80;6.85;;;15.70;99.90;;;;;;5051890;28;20060;-87
2023/10/13 07:09:55;;;;;;;10.35;6.82;;;15.70;99.90;;;;;;5034671;28;20044;-87
2023/10/13 07:12:26;;;;;;;12.73;7.80;;;15.80;99.90;;;;;;5050888;28;20048;-86
2023/10/13 07:14:53;;;;;;;9.98;6.28;;;15.80;99.90;;;;;;5068944;28;20131;-87
2023/10/13 07:17:25;;;;;;;10.10;6.75;;;15.80;99.90;;;;;;5067876;28;20057;-87
2023/10/13 07:19:55;;;;;;;8.07;6.13;;;15.80;99.90;;;;;;5051341;28;20482;-87
2023/10/13 07:22:22;;;;;;;9.75;6.35;;;15.80;99.90;;;;;;5035116;28;20080;-87
2023/10/13 07:24:50;;;;;;;8.38;7.28;;;15.80;99.90;;;;;;5067075;28;20132;-88
2023/10/13 07:27:24;;;;;;;10.23;6.93;;;15.70;99.90;;;;;;5068297;28;20049;-87
2023/10/13 07:32:35;;;;;;;12.43;6.97;;;15.70;99.90;;;;;;5083739;28;20080;-86
2023/10/13 07:35:14;;;;;;;10.93;6.70;;;15.70;99.90;;;;;;5044109;28;20159;-87
2023/10/13 07:37:42;;;;;;;9.95;7.53;;;15.70;99.90;;;;;;5042766;28;20455;-88
2023/10/13 07:43:09;;;;;;;12.48;7.18;;;15.10;99.90;;;;;;5067399;28;20052;-88
2023/10/13 07:45:40;;;;;;;13.93;9.43;;;14.90;99.90;;;;;;5067251;28;20088;-89
2023/10/13 07:48:20;;;;;;;10.00;6.95;;;14.80;99.90;;;;;;5068188;28;20083;-88
2023/10/13 07:50:47;;;;;;;12.60;8.10;;;15.70;99.90;;;;;;5068077;28;20107;-88
2023/10/13 07:53:28;;;;;;;14.70;7.45;;;15.60;99.90;;;;;;5068187;28;20454;-88
2023/10/13 07:56:21;;;;;;;13.90;7.95;;;15.70;99.90;;;;;;5024396;28;20472;-87
2023/10/13 07:59:00;;;;;;;14.23;7.95;;;15.60;99.90;;;;;;5014948;28;20049;-88
2023/10/13 08:01:28;;;;;;;12.02;8.10;;;15.60;99.90;;;;;;5031015;28;20049;-88
2023/10/13 08:04:12;;;;;;;17.50;8.73;;;15.70;99.90;;;;;;5031256;28;20458;-88
2023/10/13 08:06:43;;;;;;;15.90;8.60;;;15.60;99.90;;;;;;5014585;28;20056;-88
2023/10/13 08:09:09;;;;;;;15.63;8.95;;;15.20;99.90;;;;;;5033835;28;20049;-88
2023/10/13 08:11:38;;;;;;;17.35;9.38;;;15.70;99.90;;;;;;5067467;28;20041;-88
2023/10/13 08:17:04;;;;;;;12.75;9.23;;;15.70;99.90;;;;;;5084644;28;20088;-87
2023/10/13 08:19:44;;;;;;;20.75;8.77;;;15.80;99.90;;;;;;5019657;28;20053;-88
2023/10/13 08:27:48;;;;;;;20.98;10.52;;;15.80;99.90;;;;;;5049314;28;20048;-87
2023/10/13 08:30:28;;;;;;;17.48;10.98;;;15.80;99.90;;;;;;5053893;28;20049;-87
2023/10/13 08:33:02;;;;;;;17.20;10.60;;;15.80;99.90;;;;;;5064742;28;20041;-87
2023/10/13 08:35:35;;;;;;;18.83;9.50;;;15.90;99.90;;;;;;5035637;28;20513;-87
2023/10/13 08:38:13;;;;;;;16.90;11.13;;;15.90;99.90;;;;;;5033343;28;20170;-87
2023/10/13 08:41:25;;;;;;;19.73;10.27;;;15.80;99.90;;;;;;5049970;28;20064;-89
2023/10/13 08:43:42;;;;;;;18.45;10.77;;;15.90;99.90;;;;;;5049710;28;20118;-89
2023/10/13 08:46:28;;;;;;;16.73;10.02;;;15.90;99.90;;;;;;5066360;28;20414;-89
2023/10/13 08:49:05;;;;;;;19.17;12.07;;;15.70;99.90;;;;;;5040921;28;20503;-89
2023/10/13 08:51:43;;;;;;;;;;;15.90;99.90;;;;;;5030419;28;20131;-89
2023/10/13 08:54:33;;;;;;;18.83;11.63;;;15.90;99.90;;;;;;5031103;28;19975;-91
2023/10/13 09:00:26;;;;;;;28.63;14.43;;;16.00;99.90;;;;;;5053148;28;20056;-87
2023/10/13 09:05:41;;;;;;;20.85;13.90;;;16.00;99.90;;;;;;5073506;28;20399;-87
2023/10/13 09:08:15;;;;;;;20.42;13.95;;;16.20;99.90;;;;;;5071053;28;20052;-86
2023/10/13 09:10:44;;;;;;;24.25;14.52;;;16.20;99.90;;;;;;5066286;28;20045;-84
2023/10/13 09:13:20;;;;;;;21.30;14.25;;;16.20;99.90;;;;;;5056863;28;20095;-85
2023/10/13 09:16:01;;;;;;;21.90;13.98;;;16.30;99.90;;;;;;5070273;28;20135;-85
2023/10/13 09:18:46;;;;;;;23.00;13.85;;;16.40;99.90;;;;;;5051917;28;20045;-85
2023/10/13 09:21:47;;;;;;;20.30;13.57;;;16.40;99.90;;;;;;5051423;28;20050;-85
2023/10/13 09:24:21;;;;;;;22.92;15.07;;;16.50;99.90;;;;;;5056033;28;20045;-85
2023/10/13 09:26:55;;;;;;;26.67;15.70;;;16.50;99.90;;;;;;5052983;28;20490;-86
2023/10/13 09:29:24;;;;;;;24.00;14.43;;;16.60;99.90;;;;;;5037234;28;20052;-88
2023/10/13 09:32:01;;;;;;;23.17;14.65;;;16.60;99.90;;;;;;5016227;28;20056;-85
2023/10/13 09:34:33;;;;;;;18.90;12.73;;;16.70;99.90;;;;;;5049034;28;20052;-84
2023/10/13 09:37:03;;;;;;;16.90;11.95;;;16.70;99.90;;;;;;5066394;28;20084;-84
2023/10/13 09:39:29;;;;;;;22.42;13.38;;;16.80;99.90;;;;;;5019270;28;20060;-84
2023/10/13 09:41:59;;;;;;;15.40;10.07;;;16.80;99.90;;;;;;5052934;28;20064;-85
2023/10/13 09:44:30;;;;;;;14.93;10.23;;;16.90;99.90;;;;;;5037189;28;20087;-85
2023/10/13 09:47:07;;;;;;;19.70;11.20;;;16.90;99.90;;;;;;5036237;28;20060;-84
2023/10/13 09:49:49;;;;;;;15.38;9.48;;;17.00;99.90;;;;;;5036886;28;20045;-84
2023/10/13 09:52:19;;;;;;;21.85;11.50;;;17.00;99.90;;;;;;5049181;28;20106;-84
2023/10/13 09:55:09;;;;;;;14.40;10.98;;;17.10;99.90;;;;;;5072658;28;20398;-84
2023/10/13 09:57:44;;;;;;;15.52;9.00;;;17.10;99.90;;;;;;5060398;28;20084;-84
2023/10/13 10:00:35;;;;;;;14.93;8.95;;;17.20;99.90;;;;;;5070178;28;20457;-86
2023/10/13 10:06:18;;;;;;;14.30;9.18;;;16.40;99.90;;;;;;5025407;28;20064;-85
2023/10/13 10:08:50;;;;;;;19.27;10.35;;;17.30;99.90;;;;;;5029066;28;20045;-84
2023/10/13 10:11:45;;;;;;;15.10;9.38;;;17.40;99.90;;;;;;5051958;28;20053;-84
2023/10/13 10:14:19;;;;;;;12.98;8.68;;;17.40;99.90;;;;;;5069392;28;20512;-83
2023/10/13 10:17:15;;;;;;;17.30;8.25;;;17.40;99.90;;;;;;5052182;28;20532;-84
2023/10/13 10:19:55;;;;;;;12.73;7.57;;;17.50;99.90;;;;;;5069395;28;20053;-85
2023/10/13 10:22:39;;;;;;;16.23;7.93;;;17.40;99.90;;;;;;5069734;28;20052;-83
2023/10/13 10:28:06;;;;;;;17.45;8.40;;;17.70;99.90;;;;;;5085790;28;20052;-84
2023/10/13 10:30:38;;;;;;;16.58;9.30;;;17.70;99.90;;;;;;5052704;28;20045;-83
2023/10/13 10:33:23;;;;;;;15.95;8.00;;;17.80;99.90;;;;;;5085474;28;20265;-84
2023/10/13 10:36:02;;;;;;;11.25;7.45;;;17.90;99.90;;;;;;5068393;28;20494;-84
2023/10/13 10:41:12;;;;;;;15.95;7.55;;;18.10;99.90;;;;;;5067979;28;20099;-84
2023/10/13 10:43:45;;;;;;;12.13;7.78;;;18.10;99.90;;;;;;5085630;28;20052;-83
2023/10/13 10:46:28;;;;;;;20.00;8.05;;;18.20;99.90;;;;;;5052023;28;20501;-84
2023/10/13 10:49:02;;;;;;;12.35;6.80;;;18.20;99.90;;;;;;5052817;28;20048;-84
2023/10/13 10:51:31;;;;;;;13.13;6.65;;;18.30;99.90;;;;;;5069086;28;20063;-84
2023/10/13 10:53:58;;;;;;;12.50;7.25;;;18.40;99.90;;;;;;5068028;28;20048;-84
2023/10/13 10:56:36;;;;;;;14.55;8.80;;;18.40;99.90;;;;;;5051612;28;20049;-83
2023/10/13 10:59:04;;;;;;;12.45;7.35;;;18.50;99.90;;;;;;5085305;28;20049;-84
2023/10/13 11:01:38;;;;;;;13.23;6.88;;;18.50;99.90;;;;;;5052103;28;20048;-83
2023/10/13 11:04:08;;;;;;;15.18;7.03;;;18.60;99.90;;;;;;5085078;28;20116;-84
2023/10/13 11:06:45;;;;;;;11.32;6.50;;;18.70;99.90;;;;;;5085584;28;20080;-84
2023/10/13 11:11:57;;;;;;;11.52;6.53;;;18.70;99.90;;;;;;5051098;28;19927;-85
2023/10/13 11:14:28;;;;;;;15.00;7.15;;;18.80;99.90;;;;;;5085285;28;20041;-83
2023/10/13 11:17:18;;;;;;;11.75;7.05;;;18.80;99.90;;;;;;5050772;28;20045;-83
2023/10/13 11:19:43;;;;;;;10.13;6.07;;;18.70;99.90;;;;;;5064989;28;20085;-84
2023/10/13 11:25:10;;;;;;;15.18;7.38;;;18.70;99.90;;;;;;5084850;28;20054;-84
2023/10/13 11:27:44;;;;;;;16.63;8.40;;;18.70;99.90;;;;;;5084987;28;20079;-83
2023/10/13 11:30:20;;;;;;;13.45;6.78;;;18.60;99.90;;;;;;5084658;28;20159;-83
2023/10/13 11:32:56;;;;;;;13.90;7.35;;;18.60;99.90;;;;;;5084913;28;20483;-84
2023/10/13 11:35:25;;;;;;;14.50;6.68;;;18.60;99.90;;;;;;5085562;28;20391;-84
2023/10/13 11:38:03;;;;;;;15.25;6.65;;;18.60;99.90;;;;;;5067608;28;20045;-84
2023/10/13 11:40:59;;;;;;;14.88;6.90;;;18.60;99.90;;;;;;5066355;28;20049;-84
2023/10/13 11:43:26;;;;;;;12.95;7.20;;;18.50;99.90;;;;;;5068224;28;20052;-84
2023/10/13 11:48:36;;;;;;;14.40;7.18;;;18.40;99.90;;;;;;5085082;28;20151;-84
2023/10/13 11:51:07;;;;;;;17.77;6.97;;;18.40;99.90;;;;;;5067632;28;20049;-84
2023/10/13 11:53:36;;;;;;;17.50;7.90;;;18.40;99.90;;;;;;5052423;28;20049;-84
2023/10/13 11:56:08;;;;;;;14.60;7.03;;;18.40;99.90;;;;;;5067318;28;20080;-84
2023/10/13 11:58:35;;;;;;;17.42;7.22;;;18.50;99.90;;;;;;5084665;28;20048;-84
2023/10/13 12:06:46;;;;;;;15.57;7.40;;;18.50;99.90;;;;;;5084663;28;20162;-84
2023/10/13 12:11:54;;;;;;;14.88;7.25;;;18.40;99.90;;;;;;5084994;28;20075;-84
2023/10/13 12:14:52;;;;;;;15.88;7.55;;;18.40;99.90;;;;;;5050393;28;20045;-84
2023/10/13 12:17:10;;;;;;;15.20;7.45;;;18.40;99.90;;;;;;5049941;28;20049;-83
2023/10/13 12:19:38;;;;;;;11.20;7.57;;;18.40;99.90;;;;;;5050523;28;20064;-83
2023/10/13 12:22:05;;;;;;;16.08;8.55;;;18.40;99.90;;;;;;5084139;28;20101;-83
2023/10/13 12:24:39;;;;;;;11.00;6.93;;;18.30;99.90;;;;;;5084825;28;20068;-84
2023/10/13 12:27:35;;;;;;;12.25;7.57;;;18.30;99.90;;;;;;5067367;28;20134;-84
2023/10/13 12:30:06;;;;;;;21.00;8.60;;;18.30;99.90;;;;;;5083690;28;20041;-84
2023/10/13 12:32:34;;;;;;;14.63;9.07;;;18.20;99.90;;;;;;5086367;28;20037;-84
2023/10/13 12:37:49;;;;;;;12.88;8.40;;;18.30;99.90;;;;;;5088418;28;20194;-84
2023/10/13 12:54:14;;;;;;;17.73;8.63;;;18.30;99.90;;;;;;5068734;28;20103;-84
2023/10/13 12:56:42;;;;;;;15.55;7.82;;;18.30;99.90;;;;;;5070818;28;20053;-84
2023/10/13 12:59:13;;;;;;;10.68;7.97;;;18.30;99.90;;;;;;5070333;28;20446;-84
2023/10/13 13:01:42;;;;;;;16.15;8.75;;;18.40;99.90;;;;;;5071060;28;20495;-85
2023/10/13 13:04:18;;;;;;;16.42;8.57;;;18.40;99.90;;;;;;5053382;28;20048;-85
2023/10/13 13:06:44;;;;;;;13.05;7.75;;;18.40;99.90;;;;;;5087884;28;20110;-85
2023/10/13 13:09:09;;;;;;;13.55;7.35;;;18.40;99.90;;;;;;5053646;28;20041;-84
2023/10/13 13:11:42;;;;;;;19.20;8.93;;;18.40;99.90;;;;;;5054098;28;20048;-85
2023/10/13 13:14:09;;;;;;;16.52;7.40;;;18.40;99.90;;;;;;5052528;28;20041;-84
2023/10/13 13:16:38;;;;;;;13.75;7.72;;;18.40;99.90;;;;;;5037443;28;20127;-84
2023/10/13 13:19:09;;;;;;;20.73;8.13;;;18.40;99.90;;;;;;5037427;28;20088;-83
2023/10/13 13:21:38;;;;;;;15.07;9.10;;;18.30;99.90;;;;;;5087967;28;20402;-85
2023/10/13 13:24:10;;;;;;;15.80;8.00;;;18.30;99.90;;;;;;5070371;28;20041;-86
2023/10/13 13:26:40;;;;;;;18.45;8.50;;;18.30;99.90;;;;;;5070611;28;20049;-86
2023/10/13 13:29:09;;;;;;;13.98;8.23;;;18.30;99.90;;;;;;5053279;28;20048;-84
2023/10/13 13:31:40;;;;;;;20.40;8.68;;;18.30;99.90;;;;;;5070052;28;20053;-85
2023/10/13 13:34:09;;;;;;;17.73;9.00;;;18.20;99.90;;;;;;5087199;28;20048;-85
2023/10/13 13:36:35;;;;;;;17.88;8.38;;;18.30;99.90;;;;;;5036695;28;20084;-85
2023/10/13 13:39:01;;;;;;;16.85;8.07;;;18.30;99.90;;;;;;5087202;28;20406;-85
2023/10/13 13:41:27;;;;;;;18.00;8.90;;;18.20;99.90;;;;;;5086346;28;20064;-84
2023/10/13 13:43:56;;;;;;;19.63;9.07;;;18.20;99.90;;;;;;5069361;28;20041;-83
2023/10/13 13:46:32;;;;;;;11.93;8.95;;;18.20;99.90;;;;;;5069049;28;20044;-83
2023/10/13 13:48:59;;;;;;;11.55;7.80;;;18.20;99.90;;;;;;5087146;28;20056;-84
2023/10/13 13:51:29;;;;;;;17.02;8.52;;;18.10;99.90;;;;;;5086528;28;20063;-83
2023/10/13 13:53:55;;;;;;;17.98;10.15;;;18.10;99.90;;;;;;5086351;28;20156;-83
2023/10/13 13:56:25;;;;;;;15.48;8.77;;;18.00;99.90;;;;;;5052825;28;20131;-84
2023/10/13 13:58:51;;;;;;;14.48;8.95;;;18.00;99.90;;;;;;5069897;28;20088;-83
2023/10/13 14:01:18;;;;;;;16.20;9.13;;;18.00;99.90;;;;;;5053734;28;20064;-83
2023/10/13 14:03:46;;;;;;;16.27;9.82;;;17.90;99.90;;;;;;5070005;28;20045;-83
2023/10/13 14:06:28;;;;;;;13.90;9.38;;;17.90;99.90;;;;;;5086375;28;20052;-86
2023/10/13 14:08:56;;;;;;;16.33;9.27;;;17.90;99.90;;;;;;5051217;28;20118;-83
2023/10/13 14:14:12;;;;;;;13.50;10.05;;;17.80;99.90;;;;;;5086436;28;20052;-83
2023/10/13 14:16:44;;;;;;;20.85;10.35;;;17.80;99.90;;;;;;5069190;28;20060;-83
2023/10/13 14:19:11;;;;;;;21.15;9.73;;;17.80;99.90;;;;;;5020401;28;20056;-83
2023/10/13 14:21:37;;;;;;;19.27;9.80;;;17.80;99.90;;;;;;5068916;28;20056;-84
2023/10/13 14:24:12;;;;;;;17.23;9.52;;;17.80;99.90;;;;;;5086442;28;20048;-83
2023/10/13 14:26:38;;;;;;;26.02;11.20;;;17.70;99.90;;;;;;5067407;28;20094;-84
2023/10/13 14:29:07;;;;;;;19.63;9.68;;;17.70;99.90;;;;;;5052647;28;20429;-83
2023/10/13 14:31:37;;;;;;;16.45;8.82;;;17.70;99.90;;;;;;5068207;28;20375;-83
2023/10/13 14:34:03;;;;;;;21.48;11.13;;;17.70;99.90;;;;;;5086056;28;20084;-84
2023/10/13 14:36:31;;;;;;;14.95;9.27;;;17.70;99.90;;;;;;5052175;28;20092;-84
2023/10/13 14:39:00;;;;;;;14.82;9.32;;;17.80;99.90;;;;;;5069214;28;20055;-84
2023/10/13 14:41:26;;;;;;;;;;;17.70;99.90;;;;;;5068550;28;20061;-84
2023/10/13 14:43:52;;;;;;;19.25;9.98;;;17.70;99.90;;;;;;5052450;28;19921;-84
2023/10/13 14:46:25;;;;;;;16.90;9.65;;;17.80;99.90;;;;;;5068523;28;20037;-87
2023/10/13 14:48:54;;;;;;;17.55;9.52;;;17.80;99.90;;;;;;5068120;28;20391;-83
2023/10/13 14:51:20;;;;;;;18.20;9.52;;;17.80;99.90;;;;;;5085414;28;20490;-87
2023/10/13 14:53:46;;;;;;;;;;;17.80;99.90;;;;;;5052399;28;20095;-84
2023/10/13 14:56:14;;;;;;;21.45;10.13;;;17.80;99.90;;;;;;5052299;28;19921;-83
2023/10/13 14:58:44;;;;;;;20.08;10.45;;;17.80;99.90;;;;;;5051569;28;20151;-84
2023/10/13 15:01:15;;;;;;;19.92;9.35;;;17.80;99.90;;;;;;5068807;28;20040;-84
2023/10/13 15:03:44;;;;;;;16.20;9.32;;;17.80;99.90;;;;;;5067883;28;20510;-84
2023/10/13 15:06:24;;;;;;;18.48;10.20;;;17.80;99.90;;;;;;5061781;28;20050;-86
2023/10/13 15:08:51;;;;;;;21.60;10.88;;;17.80;99.90;;;;;;5050350;28;20037;-83
2023/10/13 15:11:20;;;;;;;15.88;10.48;;;17.70;99.90;;;;;;5047047;28;20048;-86
2023/10/13 15:13:50;;;;;;;20.25;11.63;;;17.60;99.90;;;;;;5035711;28;20042;-89
2023/10/13 15:16:28;;;;;;;20.55;12.23;;;17.60;99.90;;;;;;5048586;28;20045;-87
2023/10/13 15:18:54;;;;;;;17.48;10.60;;;17.50;99.90;;;;;;5048614;28;20045;-87
2023/10/13 15:21:30;;;;;;;16.85;11.27;;;17.40;99.90;;;;;;5049775;28;20513;-83
2023/10/13 15:24:03;;;;;;;21.23;12.02;;;17.30;99.90;;;;;;5049480;28;20048;-86
2023/10/13 15:26:37;;;;;;;22.10;11.95;;;17.30;99.90;;;;;;5053762;28;20140;-88
2023/10/13 15:29:09;;;;;;;18.58;11.45;;;17.30;99.90;;;;;;5040321;28;20448;-86
2023/10/13 15:34:29;;;;;;;18.70;12.45;;;17.20;99.90;;;;;;5040133;28;20045;-91
2023/10/13 15:36:56;;;;;;;20.02;11.38;;;17.10;99.90;;;;;;5045810;28;20041;-89
2023/10/13 15:39:31;;;;;;;15.48;11.73;;;17.10;99.90;;;;;;5055673;28;20096;-88
2023/10/13 15:42:02;;;;;;;19.98;12.52;;;17.10;99.90;;;;;;5062446;28;20080;-87
2023/10/13 15:44:31;;;;;;;27.58;13.50;;;17.10;99.90;;;;;;5084518;28;20053;-88
2023/10/13 15:46:59;;;;;;;20.55;12.20;;;17.10;99.90;;;;;;5034592;28;20045;-87
2023/10/13 15:49:27;;;;;;;27.35;12.63;;;17.00;99.90;;;;;;5018706;28;20135;-89
2023/10/13 15:51:56;;;;;;;21.52;12.63;;;17.10;99.90;;;;;;5040756;28;20107;-89
2023/10/13 15:54:23;;;;;;;26.63;13.23;;;17.10;99.90;;;;;;5046708;28;20099;-89
2023/10/13 15:56:56;;;;;;;17.75;11.57;;;17.00;99.90;;;;;;5025163;28;20124;-87
2023/10/13 15:59:23;;;;;;;19.10;12.38;;;17.00;99.90;;;;;;5056506;28;20093;-87
2023/10/13 16:01:48;;;;;;;19.02;12.15;;;17.00;99.90;;;;;;5070671;28;20067;-88
2023/10/13 16:04:15;;;;;;;20.55;12.88;;;17.00;99.90;;;;;;5040874;28;20395;-89
2023/10/13 16:06:42;;;;;;;19.48;12.23;;;16.70;99.90;;;;;;5029487;28;20166;-88
2023/10/13 16:09:15;;;;;;;20.33;12.40;;;17.00;99.90;;;;;;5065221;28;20074;-88
2023/10/13 16:11:45;;;;;;;20.70;10.75;;;17.00;99.90;;;;;;5034609;28;20406;-88
2023/10/13 16:14:17;;;;;;;21.95;11.57;;;17.00;99.90;;;;;;5069515;28;20487;-89
2023/10/13 16:16:52;;;;;;;18.15;10.23;;;17.00;99.90;;;;;;5043633;28;20501;-88
2023/10/13 16:19:26;;;;;;;19.10;11.50;;;17.00;99.90;;;;;;5035425;28;20398;-87
2023/10/13 16:21:53;;;;;;;16.45;9.00;;;17.00;99.90;;;;;;5036031;28;20060;-87
2023/10/13 16:24:22;;;;;;;12.63;8.18;;;17.00;99.90;;;;;;5040322;28;20490;-85